createdAt,value
2022-10-23T00:00:10.660Z,76.73
2022-10-23T00:01:44.481Z,76.78
2022-10-23T00:03:16.485Z,76.74
2022-10-23T00:04:52.130Z,76.52
2022-10-23T00:06:24.865Z,76.56
2022-10-23T00:07:59.151Z,76.58
2022-10-23T00:09:31.317Z,76.57
2022-10-23T00:11:11.600Z,76.32
2022-10-23T00:12:43.958Z,76.52
2022-10-23T00:14:21.721Z,76.32
2022-10-23T00:15:53.713Z,76.34
2022-10-23T00:17:25.645Z,76.42
2022-10-23T00:18:57.801Z,76.42
2022-10-23T00:20:29.945Z,76.57
2022-10-23T00:22:01.961Z,76.63
2022-10-23T00:23:34.283Z,76.77
2022-10-23T00:25:07.972Z,76.80
2022-10-23T00:26:41.010Z,76.64
2022-10-23T00:28:19.229Z,76.80
2022-10-23T00:29:51.245Z,76.33
2022-10-23T00:31:25.423Z,76.01
2022-10-23T00:32:57.455Z,76.46
2022-10-23T00:34:29.516Z,76.52
2022-10-23T00:36:01.487Z,76.57
2022-10-23T00:37:33.668Z,76.36
2022-10-23T00:39:06.343Z,76.62
2022-10-23T00:40:39.358Z,76.57
2022-10-23T00:42:15.964Z,76.47
2022-10-23T00:43:58.787Z,76.76
2022-10-23T00:45:33.719Z,76.91
2022-10-23T00:47:05.790Z,77.01
2022-10-23T00:48:37.825Z,77.12
2022-10-23T00:50:09.920Z,77.57
2022-10-23T00:51:45.600Z,77.58
2022-10-23T00:53:18.494Z,77.38
2022-10-23T00:54:50.509Z,77.40
2022-10-23T00:56:22.497Z,77.30
2022-10-23T00:57:55.632Z,77.19
2022-10-23T00:59:28.111Z,77.25
2022-10-23T01:01:00.213Z,77.16
2022-10-23T01:02:32.231Z,77.50
2022-10-23T01:04:06.459Z,77.18
2022-10-23T01:07:45.703Z,76.98
2022-10-23T01:09:31.960Z,77.03
2022-10-23T01:11:15.743Z,77.31
2022-10-23T01:13:43.099Z,77.22
2022-10-23T01:15:26.478Z,77.37
2022-10-23T01:17:09.242Z,77.15
2022-10-23T01:18:49.796Z,77.29
2022-10-23T01:20:33.608Z,77.16
2022-10-23T01:22:17.633Z,77.20
2022-10-23T01:23:58.353Z,77.20
2022-10-23T01:25:54.951Z,77.53
2022-10-23T01:27:32.201Z,77.84
2022-10-23T01:29:04.358Z,77.68
2022-10-23T01:32:18.933Z,77.60
2022-10-23T01:34:06.533Z,77.59
2022-10-23T01:35:50.017Z,77.23
2022-10-23T01:37:30.947Z,77.34
2022-10-23T01:39:07.623Z,77.62
2022-10-23T01:40:58.428Z,77.45
2022-10-23T01:42:35.237Z,77.61
2022-10-23T01:44:17.273Z,77.18
2022-10-23T01:45:56.843Z,77.23
2022-10-23T01:47:30.561Z,77.20
2022-10-23T01:49:03.663Z,77.23
2022-10-23T01:50:37.094Z,76.97
2022-10-23T01:52:09.563Z,77.13
2022-10-23T01:53:44.205Z,77.08
2022-10-23T01:55:17.040Z,77.61
2022-10-23T01:56:50.595Z,77.50
2022-10-23T02:00:01.110Z,77.32
2022-10-23T02:01:34.432Z,77.27
2022-10-23T02:03:06.384Z,77.07
2022-10-23T02:05:10.609Z,76.85
2022-10-23T02:06:42.660Z,76.66
2022-10-23T02:08:14.838Z,76.60
2022-10-23T02:09:46.848Z,76.48
2022-10-23T02:11:21.441Z,76.28
2022-10-23T02:13:13.030Z,75.99
2022-10-23T02:15:12.646Z,76.11
2022-10-23T02:16:55.605Z,76.13
2022-10-23T02:18:48.449Z,76.06
2022-10-23T02:20:22.759Z,75.90
2022-10-23T02:22:00.551Z,76.11
2022-10-23T02:23:33.542Z,76.24
2022-10-23T02:25:33.376Z,75.96
2022-10-23T02:27:15.307Z,76.06
2022-10-23T02:28:54.679Z,76.20
2022-10-23T02:30:26.759Z,76.19
2022-10-23T02:31:58.894Z,76.30
2022-10-23T02:33:31.378Z,76.33
2022-10-23T02:35:03.984Z,76.25
2022-10-23T02:36:38.745Z,76.41
2022-10-23T02:38:30.436Z,76.07
2022-10-23T02:40:05.263Z,76.29
2022-10-23T02:41:55.806Z,75.92
2022-10-23T02:43:36.055Z,76.04
2022-10-23T02:45:28.911Z,75.56
2022-10-23T02:47:00.933Z,75.49
2022-10-23T02:48:43.747Z,75.14
2022-10-23T02:50:28.520Z,75.32
2022-10-23T02:52:29.738Z,75.17
2022-10-23T02:54:37.514Z,75.21
2022-10-23T02:56:15.130Z,75.16
2022-10-23T02:58:09.194Z,75.15
2022-10-23T02:59:59.726Z,75.34
2022-10-23T03:03:58.549Z,75.07
2022-10-23T03:05:36.198Z,75.02
2022-10-23T03:07:12.334Z,74.90
2022-10-23T03:08:48.948Z,74.96
2022-10-23T03:10:21.307Z,75.14
2022-10-23T03:11:53.354Z,74.93
2022-10-23T03:13:25.413Z,74.61
2022-10-23T03:14:57.448Z,74.90
2022-10-23T03:16:29.435Z,74.78
2022-10-23T03:18:01.515Z,75.00
2022-10-23T03:19:33.531Z,75.21
2022-10-23T03:21:05.583Z,75.26
2022-10-23T03:22:38.095Z,74.79
2022-10-23T03:24:10.104Z,74.85
2022-10-23T03:25:42.219Z,74.42
2022-10-23T03:27:14.259Z,74.57
2022-10-23T03:28:46.322Z,74.49
2022-10-23T03:30:18.397Z,74.42
2022-10-23T03:31:50.488Z,74.30
2022-10-23T03:33:23.011Z,74.53
2022-10-23T03:34:54.994Z,74.27
2022-10-23T03:36:26.921Z,74.46
2022-10-23T03:37:58.988Z,74.38
2022-10-23T03:39:30.977Z,74.15
2022-10-23T03:41:05.824Z,74.17
2022-10-23T03:42:37.854Z,74.27
2022-10-23T03:44:09.878Z,74.20
2022-10-23T03:45:41.915Z,74.08
2022-10-23T03:47:16.383Z,74.11
2022-10-23T03:48:48.394Z,74.53
2022-10-23T03:50:20.867Z,74.56
2022-10-23T03:51:53.295Z,74.55
2022-10-23T03:53:25.336Z,74.66
2022-10-23T03:54:57.365Z,74.62
2022-10-23T03:56:29.395Z,74.64
2022-10-23T03:58:01.528Z,74.80
2022-10-23T03:59:33.499Z,74.88
2022-10-23T04:01:05.726Z,74.82
2022-10-23T04:02:37.993Z,75.05
2022-10-23T04:04:10.092Z,74.96
2022-10-23T04:05:42.680Z,74.95
2022-10-23T04:07:14.609Z,75.19
2022-10-23T04:08:46.713Z,75.05
2022-10-23T04:10:18.828Z,75.22
2022-10-23T04:11:50.821Z,75.07
2022-10-23T04:13:22.925Z,74.99
2022-10-23T04:14:55.016Z,75.21
2022-10-23T04:16:27.194Z,75.08
2022-10-23T04:17:59.195Z,74.97
2022-10-23T04:19:31.361Z,74.95
2022-10-23T04:21:03.598Z,75.08
2022-10-23T04:22:35.652Z,75.10
2022-10-23T04:24:07.843Z,74.86
2022-10-23T04:25:39.918Z,75.30
2022-10-23T04:27:12.015Z,75.47
2022-10-23T04:28:44.068Z,75.45
2022-10-23T04:30:16.142Z,75.68
2022-10-23T04:31:48.413Z,75.51
2022-10-23T04:33:23.433Z,75.59
2022-10-23T04:34:55.631Z,75.44
2022-10-23T04:36:27.712Z,75.30
2022-10-23T04:37:59.723Z,75.37
2022-10-23T04:39:31.734Z,75.54
2022-10-23T04:41:03.769Z,75.47
2022-10-23T04:42:35.772Z,75.38
2022-10-23T04:44:08.094Z,75.12
2022-10-23T04:45:40.261Z,75.13
2022-10-23T04:47:12.441Z,75.31
2022-10-23T04:48:44.589Z,75.40
2022-10-23T04:50:16.915Z,75.48
2022-10-23T04:51:48.964Z,75.48
2022-10-23T04:53:21.149Z,75.45
2022-10-23T04:54:53.202Z,75.46
2022-10-23T04:56:25.260Z,75.52
2022-10-23T04:57:57.251Z,75.77
2022-10-23T04:59:29.253Z,75.93
2022-10-23T05:02:35.182Z,75.83
2022-10-23T05:04:07.367Z,75.86
2022-10-23T05:05:39.434Z,76.17
2022-10-23T05:07:11.548Z,76.21
2022-10-23T05:08:43.643Z,76.58
2022-10-23T05:10:15.984Z,76.88
2022-10-23T05:11:48.099Z,76.68
2022-10-23T05:13:20.592Z,76.74
2022-10-23T05:14:52.885Z,76.59
2022-10-23T05:16:33.297Z,76.71
2022-10-23T05:18:13.309Z,76.69
2022-10-23T05:19:54.037Z,76.82
2022-10-23T05:21:28.315Z,76.98
2022-10-23T05:23:01.146Z,77.12
2022-10-23T05:24:33.145Z,76.95
2022-10-23T05:26:05.760Z,76.75
2022-10-23T05:27:37.783Z,77.16
2022-10-23T05:29:09.789Z,77.06
2022-10-23T05:32:16.456Z,77.22
2022-10-23T05:33:48.614Z,77.12
2022-10-23T05:35:23.124Z,77.18
2022-10-23T05:36:55.822Z,77.03
2022-10-23T05:38:30.336Z,77.36
2022-10-23T05:40:02.485Z,77.51
2022-10-23T05:41:34.611Z,77.64
2022-10-23T05:43:06.852Z,77.56
2022-10-23T05:44:39.089Z,77.49
2022-10-23T05:46:11.389Z,77.71
2022-10-23T05:47:49.729Z,77.53
2022-10-23T05:49:21.964Z,77.45
2022-10-23T05:50:53.971Z,77.53
2022-10-23T05:52:26.341Z,77.61
2022-10-23T05:53:58.493Z,77.61
2022-10-23T05:55:30.881Z,77.58
2022-10-23T05:57:03.159Z,77.86
2022-10-23T05:58:35.467Z,77.49
2022-10-23T06:00:11.696Z,77.26
2022-10-23T06:01:46.898Z,77.00
2022-10-23T06:03:19.070Z,76.77
2022-10-23T06:04:51.154Z,76.80
2022-10-23T06:06:23.374Z,76.89
2022-10-23T06:08:00.136Z,76.39
2022-10-23T06:09:32.518Z,76.38
2022-10-23T06:11:15.132Z,76.26
2022-10-23T06:12:47.145Z,76.70
2022-10-23T06:14:19.457Z,76.23
2022-10-23T06:15:51.510Z,76.30
2022-10-23T06:17:23.656Z,76.79
2022-10-23T06:18:56.336Z,76.68
2022-10-23T06:20:28.877Z,77.69
2022-10-23T06:22:01.125Z,76.74
2022-10-23T06:23:34.723Z,76.83
2022-10-23T06:25:07.607Z,76.20
2022-10-23T06:26:39.934Z,76.23
2022-10-23T06:28:12.432Z,76.02
2022-10-23T06:29:46.313Z,75.81
2022-10-23T06:31:20.012Z,75.36
2022-10-23T06:32:52.296Z,74.68
2022-10-23T06:34:24.467Z,74.08
2022-10-23T06:37:30.395Z,72.80
2022-10-23T06:39:02.801Z,72.07
2022-10-23T06:40:35.248Z,71.52
2022-10-23T06:42:07.833Z,70.91
2022-10-23T06:43:40.228Z,70.43
2022-10-23T06:45:12.538Z,69.86
2022-10-23T06:46:47.532Z,69.29
2022-10-23T06:48:19.636Z,69.37
2022-10-23T06:49:51.917Z,68.77
2022-10-23T06:51:25.578Z,68.60
2022-10-23T06:52:57.991Z,68.13
2022-10-23T06:54:30.254Z,68.16
2022-10-23T06:56:03.211Z,67.87
2022-10-23T06:57:35.813Z,67.61
2022-10-23T06:59:08.116Z,67.25
2022-10-23T07:00:40.593Z,67.42
2022-10-23T07:02:12.836Z,67.05
2022-10-23T07:03:45.621Z,67.22
2022-10-23T07:05:18.604Z,67.41
2022-10-23T07:06:50.809Z,66.80
2022-10-23T07:08:23.227Z,66.26
2022-10-23T07:09:55.338Z,66.17
2022-10-23T07:11:27.755Z,66.01
2022-10-23T07:13:01.416Z,65.37
2022-10-23T07:14:36.307Z,65.49
2022-10-23T07:16:19.640Z,64.89
2022-10-23T07:17:51.767Z,65.09
2022-10-23T07:19:25.513Z,64.81
2022-10-23T07:20:59.102Z,64.71
2022-10-23T07:22:31.541Z,64.31
2022-10-23T07:24:04.373Z,64.03
2022-10-23T07:25:36.664Z,63.95
2022-10-23T07:27:08.793Z,64.30
2022-10-23T07:28:41.973Z,64.09
2022-10-23T07:30:15.330Z,63.82
2022-10-23T07:31:47.412Z,63.23
2022-10-23T07:33:19.683Z,63.50
2022-10-23T07:34:51.980Z,63.48
2022-10-23T07:36:24.368Z,63.25
2022-10-23T07:37:57.040Z,63.23
2022-10-23T07:39:29.380Z,63.13
2022-10-23T07:41:02.276Z,63.33
2022-10-23T07:42:34.701Z,62.77
2022-10-23T07:44:07.210Z,63.07
2022-10-23T07:45:39.489Z,62.95
2022-10-23T07:47:11.611Z,62.66
2022-10-23T07:48:44.097Z,62.17
2022-10-23T07:51:51.406Z,60.91
2022-10-23T07:53:25.851Z,60.43
2022-10-23T07:54:58.026Z,60.42
2022-10-23T07:56:30.364Z,59.94
2022-10-23T07:58:02.619Z,59.43
2022-10-23T07:59:37.903Z,59.08
2022-10-23T08:01:18.538Z,58.58
2022-10-23T08:02:51.002Z,58.45
2022-10-23T08:04:23.611Z,58.50
2022-10-23T08:05:56.991Z,58.25
2022-10-23T08:07:29.633Z,57.88
2022-10-23T08:09:05.484Z,57.85
2022-10-23T08:10:38.987Z,58.06
2022-10-23T08:12:11.420Z,58.29
2022-10-23T08:13:44.691Z,58.41
2022-10-23T08:15:16.869Z,56.64
2022-10-23T08:16:49.223Z,56.62
2022-10-23T08:18:21.502Z,56.33
2022-10-23T08:19:53.872Z,56.00
2022-10-23T08:21:26.285Z,56.66
2022-10-23T08:22:58.552Z,55.36
2022-10-23T08:24:30.775Z,55.60
2022-10-23T08:26:05.723Z,56.06
2022-10-23T08:27:38.912Z,54.72
2022-10-23T08:29:11.349Z,55.16
2022-10-23T08:30:43.689Z,55.29
2022-10-23T08:32:16.057Z,54.36
2022-10-23T08:35:21.643Z,53.64
2022-10-23T08:36:53.905Z,52.98
2022-10-23T08:38:26.232Z,53.07
2022-10-23T08:39:58.542Z,52.47
2022-10-23T08:41:43.301Z,52.22
2022-10-23T08:43:21.860Z,51.87
2022-10-23T08:45:27.879Z,52.09
2022-10-23T08:47:12.948Z,51.81
2022-10-23T08:48:53.231Z,51.28
2022-10-23T08:52:47.454Z,51.27
2022-10-23T08:54:47.405Z,51.15
2022-10-23T08:56:29.466Z,50.63
2022-10-23T08:58:03.211Z,49.90
2022-10-23T08:59:59.453Z,50.06
2022-10-23T09:01:38.559Z,50.23
2022-10-23T09:03:13.555Z,49.40
2022-10-23T09:04:47.889Z,48.78
2022-10-23T09:06:36.017Z,49.07
2022-10-23T09:08:34.069Z,48.40
2022-10-23T09:10:31.541Z,49.00
2022-10-23T09:12:07.852Z,48.38
2022-10-23T09:13:50.849Z,48.46
2022-10-23T09:15:36.022Z,47.30
2022-10-23T09:17:25.794Z,47.89
2022-10-23T09:18:58.359Z,48.16
2022-10-23T09:20:35.041Z,48.39
2022-10-23T09:22:07.479Z,48.32
2022-10-23T09:23:39.861Z,48.81
2022-10-23T09:25:23.321Z,48.46
2022-10-23T09:26:56.108Z,47.10
2022-10-23T09:28:32.027Z,46.72
2022-10-23T09:30:04.856Z,46.50
2022-10-23T09:31:49.110Z,46.59
2022-10-23T09:33:26.662Z,45.69
2022-10-23T09:34:59.133Z,45.63
2022-10-23T09:36:31.483Z,45.82
2022-10-23T09:38:03.751Z,46.12
2022-10-23T09:39:37.017Z,45.46
2022-10-23T09:41:20.132Z,44.99
2022-10-23T09:43:04.194Z,45.14
2022-10-23T09:44:36.489Z,45.15
2022-10-23T09:46:09.811Z,45.82
2022-10-23T09:47:42.629Z,45.01
2022-10-23T09:49:20.995Z,43.76
2022-10-23T09:51:17.953Z,43.96
2022-10-23T09:52:53.557Z,43.81
2022-10-23T09:54:25.794Z,44.27
2022-10-23T09:56:02.307Z,44.02
2022-10-23T09:57:42.009Z,44.56
2022-10-23T09:59:14.611Z,43.86
2022-10-23T10:00:51.133Z,43.82
2022-10-23T10:02:30.857Z,43.40
2022-10-23T10:04:03.194Z,43.62
2022-10-23T10:05:37.942Z,43.46
2022-10-23T10:07:21.967Z,42.66
2022-10-23T10:10:45.744Z,41.31
2022-10-23T10:12:46.952Z,42.19
2022-10-23T10:14:56.140Z,41.27
2022-10-23T10:16:48.608Z,40.83
2022-10-23T10:18:48.096Z,40.38
2022-10-23T10:20:46.763Z,40.38
2022-10-23T10:22:30.733Z,40.60
2022-10-23T10:24:22.173Z,39.77
2022-10-23T10:26:16.674Z,40.16
2022-10-23T10:28:07.425Z,39.72
2022-10-23T10:30:01.153Z,40.16
2022-10-23T10:32:02.498Z,39.51
2022-10-23T10:33:53.675Z,39.28
2022-10-23T10:35:34.793Z,39.54
2022-10-23T10:37:32.944Z,39.48
2022-10-23T10:39:12.257Z,39.22
2022-10-23T10:41:05.918Z,39.09
2022-10-23T10:42:49.368Z,39.37
2022-10-23T10:46:29.060Z,38.88
2022-10-23T10:48:08.217Z,39.46
2022-10-23T10:49:58.008Z,38.85
2022-10-23T10:51:39.657Z,39.36
2022-10-23T10:53:45.743Z,38.87
2022-10-23T10:55:54.423Z,39.02
2022-10-23T10:57:33.563Z,38.56
2022-10-23T10:59:13.191Z,38.98
2022-10-23T11:00:46.088Z,38.18
2022-10-23T11:02:29.463Z,37.74
2022-10-23T11:04:19.498Z,37.84
2022-10-23T11:05:52.307Z,38.11
2022-10-23T11:07:27.956Z,38.29
2022-10-23T11:09:19.714Z,38.37
2022-10-23T11:10:57.592Z,37.69
2022-10-23T11:12:33.096Z,37.40
2022-10-23T11:14:05.639Z,38.08
2022-10-23T11:15:43.715Z,38.96
2022-10-23T11:17:40.159Z,37.87
2022-10-23T11:19:34.735Z,37.38
2022-10-23T11:21:27.619Z,37.57
2022-10-23T11:23:36.911Z,38.05
2022-10-23T11:25:32.626Z,37.54
2022-10-23T11:27:27.562Z,38.20
2022-10-23T11:29:14.187Z,36.40
2022-10-23T11:31:11.539Z,36.32
2022-10-23T11:33:02.291Z,36.33
2022-10-23T11:34:46.951Z,36.43
2022-10-23T11:36:21.783Z,36.45
2022-10-23T11:38:28.580Z,36.43
2022-10-23T11:40:22.584Z,36.06
2022-10-23T11:42:19.131Z,36.73
2022-10-23T11:43:57.484Z,36.45
2022-10-23T11:45:47.934Z,35.77
2022-10-23T11:47:39.339Z,35.89
2022-10-23T11:49:25.160Z,36.17
2022-10-23T11:50:59.161Z,36.29
2022-10-23T11:52:50.656Z,36.13
2022-10-23T11:54:28.778Z,36.27
2022-10-23T11:56:27.398Z,35.54
2022-10-23T11:58:05.907Z,35.52
2022-10-23T11:59:50.267Z,36.12
2022-10-23T12:01:47.315Z,35.54
2022-10-23T12:03:24.606Z,35.74
2022-10-23T12:04:57.113Z,35.42
2022-10-23T12:06:52.595Z,35.32
2022-10-23T12:08:28.163Z,35.75
2022-10-23T12:10:03.239Z,35.13
2022-10-23T12:11:48.184Z,35.57
2022-10-23T12:13:38.383Z,35.37
2022-10-23T12:15:16.440Z,35.58
2022-10-23T12:16:48.771Z,35.56
2022-10-23T12:18:22.373Z,35.27
2022-10-23T12:19:55.383Z,35.49
2022-10-23T12:21:28.819Z,35.17
2022-10-23T12:23:00.930Z,34.44
2022-10-23T12:24:40.088Z,34.63
2022-10-23T12:26:18.536Z,34.10
2022-10-23T12:27:59.534Z,34.48
2022-10-23T12:29:51.821Z,34.38
2022-10-23T12:31:23.940Z,34.26
2022-10-23T12:32:56.134Z,35.01
2022-10-23T12:35:03.647Z,34.61
2022-10-23T12:36:35.655Z,34.60
2022-10-23T12:38:15.716Z,34.51
2022-10-23T12:39:52.454Z,34.64
2022-10-23T12:41:33.126Z,34.48
2022-10-23T12:43:17.895Z,34.65
2022-10-23T12:45:13.173Z,34.93
2022-10-23T12:46:48.536Z,35.23
2022-10-23T12:48:21.911Z,34.85
2022-10-23T12:49:53.989Z,35.02
2022-10-23T12:51:31.188Z,34.44
2022-10-23T12:53:04.928Z,34.31
2022-10-23T12:54:39.217Z,34.40
2022-10-23T12:56:11.216Z,33.97
2022-10-23T12:59:18.070Z,33.42
2022-10-23T13:00:54.194Z,33.56
2022-10-23T13:02:30.736Z,33.61
2022-10-23T13:04:12.224Z,34.25
2022-10-23T13:05:44.430Z,33.97
2022-10-23T13:07:16.509Z,34.25
2022-10-23T13:08:48.684Z,34.32
2022-10-23T13:10:21.636Z,34.54
2022-10-23T13:11:53.770Z,35.17
2022-10-23T13:13:25.833Z,34.37
2022-10-23T13:15:03.822Z,33.70
2022-10-23T13:16:36.012Z,33.54
2022-10-23T13:18:08.776Z,33.03
2022-10-23T13:19:40.771Z,33.10
2022-10-23T13:21:23.290Z,34.05
2022-10-23T13:23:00.761Z,33.26
2022-10-23T13:24:33.472Z,33.32
2022-10-23T13:26:06.797Z,33.48
2022-10-23T13:27:39.032Z,34.03
2022-10-23T13:31:02.407Z,34.82
2022-10-23T13:32:34.547Z,35.13
2022-10-23T13:34:07.802Z,34.63
2022-10-23T13:35:39.806Z,34.77
2022-10-23T13:37:21.065Z,34.40
2022-10-23T13:39:04.987Z,34.58
2022-10-23T13:40:37.164Z,34.59
2022-10-23T13:42:35.680Z,34.34
2022-10-23T13:44:08.099Z,34.91
2022-10-23T13:45:41.064Z,34.66
2022-10-23T13:47:13.470Z,34.49
2022-10-23T13:48:45.914Z,34.47
2022-10-23T13:50:18.211Z,34.12
2022-10-23T13:51:51.547Z,34.17
2022-10-23T13:53:23.549Z,33.96
2022-10-23T13:54:55.587Z,34.05
2022-10-23T13:56:31.737Z,34.07
2022-10-23T13:58:04.023Z,33.61
2022-10-23T13:59:36.108Z,34.23
2022-10-23T14:01:12.620Z,34.53
2022-10-23T14:02:45.486Z,34.47
2022-10-23T14:04:18.085Z,34.49
2022-10-23T14:05:51.023Z,34.37
2022-10-23T14:07:23.056Z,34.47
2022-10-23T14:08:55.173Z,33.87
2022-10-23T14:10:27.859Z,34.49
2022-10-23T14:12:00.032Z,34.75
2022-10-23T14:13:32.285Z,34.53
2022-10-23T14:15:04.312Z,35.04
2022-10-23T14:16:36.437Z,34.60
2022-10-23T14:19:48.488Z,34.93
2022-10-23T14:21:21.115Z,35.50
2022-10-23T14:22:53.119Z,34.98
2022-10-23T14:24:25.334Z,35.24
2022-10-23T14:26:04.087Z,35.49
2022-10-23T14:27:36.304Z,35.90
2022-10-23T14:29:10.293Z,35.35
2022-10-23T14:30:48.317Z,35.52
2022-10-23T14:32:20.237Z,35.53
2022-10-23T14:33:54.500Z,36.07
2022-10-23T14:53:14.112Z,37.45
2022-10-23T14:54:46.162Z,38.00
2022-10-23T14:56:18.451Z,38.32
2022-10-23T14:57:54.958Z,38.32
2022-10-23T14:59:27.188Z,38.58
2022-10-23T15:00:59.862Z,38.51
2022-10-23T15:02:32.188Z,38.72
2022-10-23T15:04:04.453Z,38.93
2022-10-23T15:05:36.572Z,39.43
2022-10-23T15:07:08.763Z,39.28
2022-10-23T15:08:41.045Z,39.53
2022-10-23T15:10:13.430Z,40.08
2022-10-23T15:11:45.708Z,40.18
2022-10-23T15:13:17.775Z,40.03
2022-10-23T15:14:49.766Z,40.54
2022-10-23T15:16:22.454Z,41.97
2022-10-23T15:17:54.425Z,42.16
2022-10-23T15:19:26.566Z,43.23
2022-10-23T15:20:58.651Z,43.48
2022-10-23T15:22:30.813Z,43.42
2022-10-23T15:24:03.322Z,43.99
2022-10-23T15:25:40.921Z,43.91
2022-10-23T15:27:12.862Z,44.56
2022-10-23T15:28:44.720Z,45.07
2022-10-23T15:30:17.004Z,45.51
2022-10-23T15:31:56.185Z,45.76
2022-10-23T15:33:28.317Z,45.96
2022-10-23T15:35:00.534Z,46.13
2022-10-23T15:36:32.805Z,46.53
2022-10-23T15:38:05.025Z,46.46
2022-10-23T15:39:38.175Z,46.53
2022-10-23T15:41:14.671Z,46.77
2022-10-23T15:42:47.882Z,47.27
2022-10-23T15:44:20.492Z,47.38
2022-10-23T15:45:52.467Z,48.25
2022-10-23T15:47:24.452Z,49.29
2022-10-23T15:48:56.408Z,49.29
2022-10-23T15:50:28.637Z,49.54
2022-10-23T15:52:00.766Z,49.91
2022-10-23T15:53:33.484Z,50.39
2022-10-23T15:55:06.001Z,50.43
2022-10-23T15:56:38.073Z,49.91
2022-10-23T15:58:10.097Z,49.48
2022-10-23T15:59:42.324Z,49.55
2022-10-23T16:01:14.485Z,50.44
2022-10-23T16:02:46.733Z,52.52
2022-10-23T16:04:19.021Z,52.33
2022-10-23T16:05:51.089Z,51.70
2022-10-23T16:07:23.409Z,52.69
2022-10-23T16:08:55.499Z,52.55
2022-10-23T16:10:27.666Z,52.17
2022-10-23T16:11:59.772Z,53.11
2022-10-23T16:13:31.925Z,52.51
2022-10-23T16:15:04.073Z,53.32
2022-10-23T16:16:36.165Z,53.83
2022-10-23T16:18:09.317Z,53.67
2022-10-23T16:19:41.648Z,53.94
2022-10-23T16:21:32.193Z,54.08
2022-10-23T16:23:04.291Z,54.38
2022-10-23T16:24:36.279Z,55.06
2022-10-23T16:26:08.294Z,55.28
2022-10-23T16:27:40.420Z,55.50
2022-10-23T16:29:12.557Z,55.57
2022-10-23T16:30:44.535Z,55.56
2022-10-23T16:32:19.457Z,55.80
2022-10-23T16:33:51.821Z,56.19
2022-10-23T16:35:23.866Z,56.26
2022-10-23T16:36:55.736Z,56.84
2022-10-23T16:38:27.878Z,56.61
2022-10-23T16:40:01.326Z,56.55
2022-10-23T16:41:33.337Z,56.96
2022-10-23T16:43:05.360Z,57.00
2022-10-23T16:44:37.474Z,56.61
2022-10-23T16:46:13.788Z,57.22
2022-10-23T16:47:45.911Z,57.37
2022-10-23T16:49:20.903Z,57.00
2022-10-23T16:50:53.106Z,57.17
2022-10-23T16:52:25.565Z,57.24
2022-10-23T16:53:57.940Z,57.86
2022-10-23T16:57:03.939Z,58.06
2022-10-23T16:58:36.277Z,57.93
2022-10-23T17:00:08.491Z,58.04
2022-10-23T17:01:40.670Z,58.13
2022-10-23T17:03:12.791Z,58.47
2022-10-23T17:04:44.973Z,58.34
2022-10-23T17:06:18.461Z,58.63
2022-10-23T17:07:50.671Z,59.01
2022-10-23T17:09:24.022Z,59.06
2022-10-23T17:11:08.483Z,59.24
2022-10-23T17:12:40.528Z,59.32
2022-10-23T17:14:14.113Z,59.54
2022-10-23T17:15:46.115Z,59.96
2022-10-23T17:17:18.200Z,60.02
2022-10-23T17:18:50.580Z,60.16
2022-10-23T17:20:22.697Z,60.29
2022-10-23T17:21:55.471Z,60.59
2022-10-23T17:23:27.978Z,60.78
2022-10-23T17:26:36.600Z,61.13
2022-10-23T17:28:08.819Z,61.28
2022-10-23T17:29:40.820Z,61.02
2022-10-23T17:31:13.180Z,61.31
2022-10-23T17:32:45.676Z,61.37
2022-10-23T17:34:19.802Z,61.75
2022-10-23T17:35:52.949Z,61.76
2022-10-23T17:37:24.959Z,61.98
2022-10-23T17:38:56.938Z,61.85
2022-10-23T17:40:34.475Z,61.79
2022-10-23T17:42:06.656Z,61.68
2022-10-23T17:43:38.778Z,61.69
2022-10-23T17:45:11.110Z,61.92
2022-10-23T17:46:43.067Z,61.88
2022-10-23T17:48:15.098Z,61.98
2022-10-23T17:49:47.001Z,61.78
2022-10-23T17:51:22.754Z,61.69
2022-10-23T17:52:54.933Z,62.04
2022-10-23T17:54:27.769Z,62.72
2022-10-23T17:56:01.452Z,63.14
2022-10-23T17:57:33.289Z,63.26
2022-10-23T17:59:07.088Z,63.47
2022-10-23T18:00:41.987Z,63.52
2022-10-23T18:02:14.087Z,63.95
2022-10-23T18:03:46.209Z,64.77
2022-10-23T18:05:18.384Z,65.07
2022-10-23T18:06:53.065Z,65.23
2022-10-23T18:08:25.176Z,65.11
2022-10-23T18:09:57.140Z,65.24
2022-10-23T18:11:33.823Z,65.12
2022-10-23T18:13:05.927Z,65.84
2022-10-23T18:14:38.211Z,65.82
2022-10-23T18:16:11.825Z,66.05
2022-10-23T18:17:44.002Z,65.99
2022-10-23T18:19:18.519Z,66.25
2022-10-23T18:20:50.513Z,66.47
2022-10-23T18:22:22.595Z,66.24
2022-10-23T18:23:55.085Z,66.31
2022-10-23T18:25:27.320Z,66.24
2022-10-23T18:26:59.340Z,66.09
2022-10-23T18:28:32.854Z,66.52
2022-10-23T18:30:05.249Z,66.25
2022-10-23T18:31:40.665Z,66.37
2022-10-23T18:33:12.626Z,66.42
2022-10-23T18:34:44.804Z,66.04
2022-10-23T18:36:18.925Z,66.56
2022-10-23T18:37:50.901Z,66.68
2022-10-23T18:39:23.593Z,66.76
2022-10-23T18:40:55.661Z,67.39
2022-10-23T18:42:27.489Z,67.62
2022-10-23T18:43:59.592Z,67.73
2022-10-23T18:45:31.778Z,68.01
2022-10-23T18:47:03.679Z,68.37
2022-10-23T18:48:35.902Z,68.50
2022-10-23T18:50:08.066Z,68.44
2022-10-23T18:51:40.217Z,68.28
2022-10-23T18:53:12.307Z,68.47
2022-10-23T18:54:44.397Z,68.41
2022-10-23T18:56:16.798Z,68.42
2022-10-23T18:57:48.906Z,68.53
2022-10-23T18:59:21.285Z,68.39
2022-10-23T19:00:53.288Z,68.65
2022-10-23T19:02:25.815Z,68.48
2022-10-23T19:03:59.661Z,68.50
2022-10-23T19:05:31.822Z,68.61
2022-10-23T19:07:03.940Z,68.00
2022-10-23T19:08:39.395Z,67.97
2022-10-23T19:10:16.100Z,67.98
2022-10-23T19:11:48.052Z,67.85
2022-10-23T19:13:21.298Z,68.12
2022-10-23T19:14:55.256Z,68.07
2022-10-23T19:16:31.581Z,68.39
2022-10-23T19:18:04.346Z,68.45
2022-10-23T19:19:36.994Z,68.23
2022-10-23T19:21:09.285Z,67.84
2022-10-23T19:22:41.685Z,68.06
2022-10-23T19:24:18.636Z,68.22
2022-10-23T19:25:50.659Z,68.42
2022-10-23T19:27:22.654Z,68.54
2022-10-23T19:28:54.583Z,68.75
2022-10-23T19:30:26.665Z,68.59
2022-10-23T19:31:58.738Z,68.82
2022-10-23T19:33:30.745Z,68.77
2022-10-23T19:35:02.830Z,68.72
2022-10-23T19:36:34.862Z,68.54
2022-10-23T19:38:06.831Z,68.47
2022-10-23T19:39:39.039Z,68.78
2022-10-23T19:41:11.228Z,68.79
2022-10-23T19:42:43.460Z,68.76
2022-10-23T19:44:15.461Z,68.65
2022-10-23T19:45:49.638Z,68.87
2022-10-23T19:47:21.702Z,68.93
2022-10-23T19:48:57.611Z,69.35
2022-10-23T19:50:29.820Z,69.43
2022-10-23T19:52:01.648Z,69.58
2022-10-23T19:53:34.517Z,69.67
2022-10-23T19:55:06.873Z,69.80
2022-10-23T19:56:38.908Z,69.90
2022-10-23T19:58:11.108Z,69.78
2022-10-23T19:59:43.116Z,69.90
2022-10-23T20:01:16.636Z,69.93
2022-10-23T20:02:51.354Z,69.91
2022-10-23T20:04:26.363Z,70.04
2022-10-23T20:05:58.357Z,70.25
2022-10-23T20:07:30.415Z,70.60
2022-10-23T20:09:08.238Z,70.90
2022-10-23T20:10:43.492Z,71.13
2022-10-23T20:12:15.478Z,71.22
2022-10-23T20:13:47.874Z,70.96
2022-10-23T20:15:19.748Z,71.41
2022-10-23T20:16:55.712Z,71.32
2022-10-23T20:18:28.122Z,71.39
2022-10-23T20:20:02.962Z,71.41
2022-10-23T20:21:38.422Z,71.62
2022-10-23T20:23:10.359Z,71.50
2022-10-23T20:24:42.658Z,71.35
2022-10-23T20:26:18.710Z,71.69
2022-10-23T20:27:50.615Z,71.71
2022-10-23T20:29:22.756Z,71.76
2022-10-23T20:30:54.587Z,71.87
2022-10-23T20:32:26.407Z,71.49
2022-10-23T20:33:58.344Z,71.50
2022-10-23T20:35:30.276Z,71.47
2022-10-23T20:37:02.248Z,71.32
2022-10-23T20:38:34.479Z,71.44
2022-10-23T20:40:06.667Z,71.27
2022-10-23T20:41:38.656Z,70.96
2022-10-23T20:43:10.501Z,71.27
2022-10-23T20:44:42.346Z,71.34
2022-10-23T20:46:14.258Z,71.51
2022-10-23T20:47:48.084Z,71.46
2022-10-23T20:49:19.987Z,71.98
2022-10-23T20:50:51.811Z,72.16
2022-10-23T20:52:24.030Z,72.42
2022-10-23T20:53:56.021Z,72.63
2022-10-23T20:55:27.881Z,72.62
2022-10-23T20:56:59.729Z,72.67
2022-10-23T20:58:31.583Z,72.39
2022-10-23T21:00:05.880Z,72.48
2022-10-23T21:01:39.643Z,72.66
2022-10-23T21:03:11.577Z,72.64
2022-10-23T21:04:43.466Z,72.70
2022-10-23T21:06:16.042Z,72.62
2022-10-23T21:07:47.917Z,72.44
2022-10-23T21:09:19.762Z,72.71
2022-10-23T21:10:51.701Z,72.86
2022-10-23T21:12:23.677Z,72.89
2022-10-23T21:14:00.410Z,72.78
2022-10-23T21:15:32.257Z,72.39
2022-10-23T21:17:04.379Z,72.60
2022-10-23T21:18:45.532Z,72.36
2022-10-23T21:20:18.501Z,72.32